sensor_id;sensor_type;location;lat;lon;timestamp;temperature;humidity
24470;DHT22;12635;50.852;5.676;2023-06-14T00:01:49;16.80;99.90
24470;DHT22;12635;50.852;5.676;2023-06-14T00:04:18;16.80;99.90
24470;DHT22;12635;50.852;5.676;2023-06-14T00:06:46;16.80;99.90
24470;DHT22;12635;50.852;5.676;2023-06-14T00:09:14;16.80;99.90
24470;DHT22;12635;50.852;5.676;2023-06-14T00:11:43;16.80;99.90
24470;DHT22;12635;50.852;5.676;2023-06-14T00:14:09;16.50;99.90
24470;DHT22;12635;50.852;5.676;2023-06-14T00:16:36;16.20;99.90
24470;DHT22;12635;50.852;5.676;2023-06-14T00:19:04;16.00;99.90
24470;DHT22;12635;50.852;5.676;2023-06-14T00:21:32;15.80;99.90
24470;DHT22;12635;50.852;5.676;2023-06-14T00:24:00;15.80;99.90
24470;DHT22;12635;50.852;5.676;2023-06-14T00:26:27;15.60;99.90
24470;DHT22;12635;50.852;5.676;2023-06-14T00:28:54;15.50;99.90
24470;DHT22;12635;50.852;5.676;2023-06-14T00:31:22;15.40;99.90
24470;DHT22;12635;50.852;5.676;2023-06-14T00:33:48;15.20;99.90
24470;DHT22;12635;50.852;5.676;2023-06-14T00:36:15;15.20;99.90
24470;DHT22;12635;50.852;5.676;2023-06-14T00:38:43;15.20;99.90
24470;DHT22;12635;50.852;5.676;2023-06-14T00:41:10;15.20;99.90
24470;DHT22;12635;50.852;5.676;2023-06-14T00:43:37;15.20;99.90
24470;DHT22;12635;50.852;5.676;2023-06-14T00:46:04;15.40;99.90
24470;DHT22;12635;50.852;5.676;2023-06-14T00:48:31;15.40;99.90
24470;DHT22;12635;50.852;5.676;2023-06-14T00:50:58;15.50;99.90
24470;DHT22;12635;50.852;5.676;2023-06-14T00:53:29;15.50;99.90
24470;DHT22;12635;50.852;5.676;2023-06-14T00:55:58;15.40;99.90
24470;DHT22;12635;50.852;5.676;2023-06-14T00:58:25;15.30;99.90
24470;DHT22;12635;50.852;5.676;2023-06-14T01:00:52;15.30;99.90
24470;DHT22;12635;50.852;5.676;2023-06-14T01:03:19;15.10;99.90
24470;DHT22;12635;50.852;5.676;2023-06-14T01:05:48;14.90;99.90
24470;DHT22;12635;50.852;5.676;2023-06-14T01:08:19;14.70;99.90
24470;DHT22;12635;50.852;5.676;2023-06-14T01:10:52;14.60;99.90
24470;DHT22;12635;50.852;5.676;2023-06-14T01:13:21;14.50;99.90
24470;DHT22;12635;50.852;5.676;2023-06-14T01:15:50;14.40;99.90
24470;DHT22;12635;50.852;5.676;2023-06-14T01:18:17;14.40;99.90
24470;DHT22;12635;50.852;5.676;2023-06-14T01:20:45;14.60;99.90
24470;DHT22;12635;50.852;5.676;2023-06-14T01:23:14;14.50;99.90
24470;DHT22;12635;50.852;5.676;2023-06-14T01:25:40;14.50;99.90
24470;DHT22;12635;50.852;5.676;2023-06-14T01:28:10;14.60;99.90
24470;DHT22;12635;50.852;5.676;2023-06-14T01:30:38;14.60;99.90
24470;DHT22;12635;50.852;5.676;2023-06-14T01:33:10;14.50;99.90
24470;DHT22;12635;50.852;5.676;2023-06-14T01:35:38;14.40;99.90
24470;DHT22;12635;50.852;5.676;2023-06-14T01:38:06;14.50;99.90
24470;DHT22;12635;50.852;5.676;2023-06-14T01:40:34;14.50;99.90
24470;DHT22;12635;50.852;5.676;2023-06-14T01:43:01;14.40;99.90
24470;DHT22;12635;50.852;5.676;2023-06-14T01:45:28;14.60;99.90
24470;DHT22;12635;50.852;5.676;2023-06-14T01:47:55;14.60;99.90
24470;DHT22;12635;50.852;5.676;2023-06-14T01:50:22;14.70;99.90
24470;DHT22;12635;50.852;5.676;2023-06-14T01:52:49;15.00;99.90
24470;DHT22;12635;50.852;5.676;2023-06-14T01:55:16;14.90;99.90
24470;DHT22;12635;50.852;5.676;2023-06-14T01:57:45;14.90;99.90
24470;DHT22;12635;50.852;5.676;2023-06-14T02:00:12;14.80;99.90
24470;DHT22;12635;50.852;5.676;2023-06-14T02:02:40;14.90;99.90
24470;DHT22;12635;50.852;5.676;2023-06-14T02:05:06;14.80;99.90
24470;DHT22;12635;50.852;5.676;2023-06-14T02:07:34;15.00;99.90
24470;DHT22;12635;50.852;5.676;2023-06-14T02:10:01;15.10;99.90
24470;DHT22;12635;50.852;5.676;2023-06-14T02:12:28;15.20;99.90
24470;DHT22;12635;50.852;5.676;2023-06-14T02:14:56;15.10;99.90
24470;DHT22;12635;50.852;5.676;2023-06-14T02:17:24;14.80;99.90
24470;DHT22;12635;50.852;5.676;2023-06-14T02:19:51;14.60;99.90
24470;DHT22;12635;50.852;5.676;2023-06-14T02:22:18;14.50;99.90
24470;DHT22;12635;50.852;5.676;2023-06-14T02:24:47;14.40;99.90
24470;DHT22;12635;50.852;5.676;2023-06-14T02:27:14;14.50;99.90
24470;DHT22;12635;50.852;5.676;2023-06-14T02:29:41;14.30;99.90
24470;DHT22;12635;50.852;5.676;2023-06-14T02:32:09;14.10;99.90
24470;DHT22;12635;50.852;5.676;2023-06-14T02:34:36;14.10;99.90
24470;DHT22;12635;50.852;5.676;2023-06-14T02:37:06;14.00;99.90
24470;DHT22;12635;50.852;5.676;2023-06-14T02:39:33;14.10;99.90
24470;DHT22;12635;50.852;5.676;2023-06-14T02:42:00;14.50;99.90
24470;DHT22;12635;50.852;5.676;2023-06-14T02:44:27;14.60;99.90
24470;DHT22;12635;50.852;5.676;2023-06-14T02:46:54;14.50;99.90
24470;DHT22;12635;50.852;5.676;2023-06-14T02:49:22;14.30;99.90
24470;DHT22;12635;50.852;5.676;2023-06-14T02:51:49;14.20;99.90
24470;DHT22;12635;50.852;5.676;2023-06-14T02:54:16;14.30;99.90
24470;DHT22;12635;50.852;5.676;2023-06-14T02:56:43;14.40;99.90
24470;DHT22;12635;50.852;5.676;2023-06-14T02:59:10;14.50;99.90
24470;DHT22;12635;50.852;5.676;2023-06-14T03:01:36;14.40;99.90
24470;DHT22;12635;50.852;5.676;2023-06-14T03:04:06;14.40;99.90
24470;DHT22;12635;50.852;5.676;2023-06-14T03:06:35;14.40;99.90
24470;DHT22;12635;50.852;5.676;2023-06-14T03:09:02;14.20;99.90
24470;DHT22;12635;50.852;5.676;2023-06-14T03:11:30;14.10;99.90
24470;DHT22;12635;50.852;5.676;2023-06-14T03:13:57;14.20;99.90
24470;DHT22;12635;50.852;5.676;2023-06-14T03:16:24;14.10;99.90
24470;DHT22;12635;50.852;5.676;2023-06-14T03:18:54;14.10;99.90
24470;DHT22;12635;50.852;5.676;2023-06-14T03:21:21;14.00;99.90
24470;DHT22;12635;50.852;5.676;2023-06-14T03:23:49;14.00;99.90
24470;DHT22;12635;50.852;5.676;2023-06-14T03:26:16;14.10;99.90
24470;DHT22;12635;50.852;5.676;2023-06-14T03:28:44;14.20;99.90
24470;DHT22;12635;50.852;5.676;2023-06-14T03:31:11;14.40;99.90
24470;DHT22;12635;50.852;5.676;2023-06-14T03:33:38;14.40;99.90
24470;DHT22;12635;50.852;5.676;2023-06-14T03:36:05;14.40;99.90
24470;DHT22;12635;50.852;5.676;2023-06-14T03:38:33;14.50;99.90
24470;DHT22;12635;50.852;5.676;2023-06-14T03:41:01;14.40;99.90
24470;DHT22;12635;50.852;5.676;2023-06-14T03:43:28;14.40;99.90
24470;DHT22;12635;50.852;5.676;2023-06-14T03:45:55;14.40;99.90
24470;DHT22;12635;50.852;5.676;2023-06-14T03:48:22;14.50;99.90
24470;DHT22;12635;50.852;5.676;2023-06-14T03:50:49;14.50;99.90
24470;DHT22;12635;50.852;5.676;2023-06-14T03:53:16;14.50;99.90
24470;DHT22;12635;50.852;5.676;2023-06-14T03:55:43;14.50;99.90
24470;DHT22;12635;50.852;5.676;2023-06-14T03:58:11;14.50;99.90
24470;DHT22;12635;50.852;5.676;2023-06-14T04:00:38;14.50;99.90
24470;DHT22;12635;50.852;5.676;2023-06-14T04:03:05;14.50;99.90
24470;DHT22;12635;50.852;5.676;2023-06-14T04:05:32;14.50;99.90
24470;DHT22;12635;50.852;5.676;2023-06-14T04:07:59;14.40;99.90
24470;DHT22;12635;50.852;5.676;2023-06-14T04:10:26;14.40;99.90
24470;DHT22;12635;50.852;5.676;2023-06-14T04:12:53;14.50;99.90
24470;DHT22;12635;50.852;5.676;2023-06-14T04:15:21;14.60;99.90
24470;DHT22;12635;50.852;5.676;2023-06-14T04:17:48;14.60;99.90
24470;DHT22;12635;50.852;5.676;2023-06-14T04:20:15;14.60;99.90
24470;DHT22;12635;50.852;5.676;2023-06-14T04:22:42;14.70;99.90
24470;DHT22;12635;50.852;5.676;2023-06-14T04:25:09;14.80;99.90
24470;DHT22;12635;50.852;5.676;2023-06-14T04:27:37;14.90;99.90
24470;DHT22;12635;50.852;5.676;2023-06-14T04:30:04;15.30;99.90
24470;DHT22;12635;50.852;5.676;2023-06-14T04:32:34;15.80;99.90
24470;DHT22;12635;50.852;5.676;2023-06-14T04:35:04;16.10;99.90
24470;DHT22;12635;50.852;5.676;2023-06-14T04:37:31;16.50;99.90
24470;DHT22;12635;50.852;5.676;2023-06-14T04:39:58;16.70;99.90
24470;DHT22;12635;50.852;5.676;2023-06-14T04:42:26;16.70;99.90
24470;DHT22;12635;50.852;5.676;2023-06-14T04:44:56;16.70;99.90
24470;DHT22;12635;50.852;5.676;2023-06-14T04:47:23;16.80;99.90
24470;DHT22;12635;50.852;5.676;2023-06-14T04:49:57;17.10;99.90
24470;DHT22;12635;50.852;5.676;2023-06-14T04:52:25;17.40;99.90
24470;DHT22;12635;50.852;5.676;2023-06-14T04:54:55;17.40;99.90
24470;DHT22;12635;50.852;5.676;2023-06-14T04:57:22;17.30;99.90
24470;DHT22;12635;50.852;5.676;2023-06-14T04:59:50;17.40;99.90
24470;DHT22;12635;50.852;5.676;2023-06-14T05:02:21;17.20;99.90
24470;DHT22;12635;50.852;5.676;2023-06-14T05:04:48;17.00;99.90
24470;DHT22;12635;50.852;5.676;2023-06-14T05:07:16;16.70;99.90
24470;DHT22;12635;50.852;5.676;2023-06-14T05:09:44;16.50;99.90
24470;DHT22;12635;50.852;5.676;2023-06-14T05:12:11;16.60;99.90
24470;DHT22;12635;50.852;5.676;2023-06-14T05:14:37;16.90;99.90
24470;DHT22;12635;50.852;5.676;2023-06-14T05:17:05;17.20;99.90
24470;DHT22;12635;50.852;5.676;2023-06-14T05:19:32;17.30;99.90
24470;DHT22;12635;50.852;5.676;2023-06-14T05:21:59;17.40;99.90
24470;DHT22;12635;50.852;5.676;2023-06-14T05:24:27;17.30;99.90
24470;DHT22;12635;50.852;5.676;2023-06-14T05:26:55;17.10;99.90
24470;DHT22;12635;50.852;5.676;2023-06-14T05:29:22;17.00;99.90
24470;DHT22;12635;50.852;5.676;2023-06-14T05:31:49;17.00;99.90
24470;DHT22;12635;50.852;5.676;2023-06-14T05:34:16;17.00;99.90
24470;DHT22;12635;50.852;5.676;2023-06-14T05:36:43;17.10;99.90
24470;DHT22;12635;50.852;5.676;2023-06-14T05:39:10;17.20;99.90
24470;DHT22;12635;50.852;5.676;2023-06-14T05:41:38;17.20;99.90
24470;DHT22;12635;50.852;5.676;2023-06-14T05:44:05;17.50;99.90
24470;DHT22;12635;50.852;5.676;2023-06-14T05:46:33;17.90;99.90
24470;DHT22;12635;50.852;5.676;2023-06-14T05:48:59;18.50;99.90
24470;DHT22;12635;50.852;5.676;2023-06-14T05:51:26;19.40;99.90
24470;DHT22;12635;50.852;5.676;2023-06-14T05:53:54;20.20;99.90
24470;DHT22;12635;50.852;5.676;2023-06-14T05:56:21;20.80;99.90
24470;DHT22;12635;50.852;5.676;2023-06-14T05:58:49;21.10;99.90
24470;DHT22;12635;50.852;5.676;2023-06-14T06:01:16;21.40;99.90
24470;DHT22;12635;50.852;5.676;2023-06-14T06:03:43;21.70;99.90
24470;DHT22;12635;50.852;5.676;2023-06-14T06:06:11;21.80;99.90
24470;DHT22;12635;50.852;5.676;2023-06-14T06:08:38;22.30;99.90
24470;DHT22;12635;50.852;5.676;2023-06-14T06:11:06;22.70;99.90
24470;DHT22;12635;50.852;5.676;2023-06-14T06:13:32;22.90;99.90
24470;DHT22;12635;50.852;5.676;2023-06-14T06:16:01;23.00;99.90
24470;DHT22;12635;50.852;5.676;2023-06-14T06:18:28;23.30;99.90
24470;DHT22;12635;50.852;5.676;2023-06-14T06:20:55;23.80;99.90
24470;DHT22;12635;50.852;5.676;2023-06-14T06:23:22;23.50;99.90
24470;DHT22;12635;50.852;5.676;2023-06-14T06:25:49;23.60;99.90
24470;DHT22;12635;50.852;5.676;2023-06-14T06:28:16;24.80;99.90
24470;DHT22;12635;50.852;5.676;2023-06-14T06:30:43;25.40;99.90
24470;DHT22;12635;50.852;5.676;2023-06-14T06:33:11;24.90;99.90
24470;DHT22;12635;50.852;5.676;2023-06-14T06:35:39;24.90;99.90
24470;DHT22;12635;50.852;5.676;2023-06-14T06:38:06;25.00;99.90
24470;DHT22;12635;50.852;5.676;2023-06-14T06:40:34;25.30;99.90
24470;DHT22;12635;50.852;5.676;2023-06-14T06:43:01;24.50;99.90
24470;DHT22;12635;50.852;5.676;2023-06-14T06:45:28;24.30;99.90
24470;DHT22;12635;50.852;5.676;2023-06-14T06:47:56;24.80;99.90
24470;DHT22;12635;50.852;5.676;2023-06-14T06:50:24;25.20;99.90
24470;DHT22;12635;50.852;5.676;2023-06-14T06:52:51;25.20;99.90
24470;DHT22;12635;50.852;5.676;2023-06-14T06:55:18;24.30;99.90
24470;DHT22;12635;50.852;5.676;2023-06-14T06:57:45;24.40;99.90
24470;DHT22;12635;50.852;5.676;2023-06-14T07:00:12;25.00;99.90
24470;DHT22;12635;50.852;5.676;2023-06-14T07:02:39;26.00;99.90
24470;DHT22;12635;50.852;5.676;2023-06-14T07:05:06;26.20;99.90
24470;DHT22;12635;50.852;5.676;2023-06-14T07:07:35;26.80;99.90
24470;DHT22;12635;50.852;5.676;2023-06-14T07:10:02;27.40;99.90
24470;DHT22;12635;50.852;5.676;2023-06-14T07:12:30;28.50;99.90
24470;DHT22;12635;50.852;5.676;2023-06-14T07:14:59;28.00;99.90
24470;DHT22;12635;50.852;5.676;2023-06-14T07:17:25;28.10;99.90
24470;DHT22;12635;50.852;5.676;2023-06-14T07:19:52;27.20;99.90
24470;DHT22;12635;50.852;5.676;2023-06-14T07:22:19;27.30;99.90
24470;DHT22;12635;50.852;5.676;2023-06-14T07:24:48;27.80;99.90
24470;DHT22;12635;50.852;5.676;2023-06-14T07:27:15;28.00;99.90
24470;DHT22;12635;50.852;5.676;2023-06-14T07:29:42;27.40;99.90
24470;DHT22;12635;50.852;5.676;2023-06-14T07:32:08;27.70;99.90
24470;DHT22;12635;50.852;5.676;2023-06-14T07:34:35;27.60;99.90
24470;DHT22;12635;50.852;5.676;2023-06-14T07:37:02;28.20;99.90
24470;DHT22;12635;50.852;5.676;2023-06-14T07:39:29;29.50;99.90
24470;DHT22;12635;50.852;5.676;2023-06-14T07:41:57;29.40;99.90
24470;DHT22;12635;50.852;5.676;2023-06-14T07:44:24;30.50;99.90
24470;DHT22;12635;50.852;5.676;2023-06-14T07:46:51;30.70;99.90
24470;DHT22;12635;50.852;5.676;2023-06-14T07:49:18;29.80;99.90
24470;DHT22;12635;50.852;5.676;2023-06-14T07:51:45;29.70;99.90
24470;DHT22;12635;50.852;5.676;2023-06-14T07:54:13;29.70;99.60
24470;DHT22;12635;50.852;5.676;2023-06-14T07:56:41;30.60;99.90
24470;DHT22;12635;50.852;5.676;2023-06-14T07:59:09;30.80;98.10
24470;DHT22;12635;50.852;5.676;2023-06-14T08:01:36;31.10;98.30
24470;DHT22;12635;50.852;5.676;2023-06-14T08:04:03;30.80;99.10
24470;DHT22;12635;50.852;5.676;2023-06-14T08:06:30;30.60;99.00
24470;DHT22;12635;50.852;5.676;2023-06-14T08:08:58;31.00;99.20
24470;DHT22;12635;50.852;5.676;2023-06-14T08:11:26;31.10;99.60
24470;DHT22;12635;50.852;5.676;2023-06-14T08:13:53;31.10;99.50
24470;DHT22;12635;50.852;5.676;2023-06-14T08:16:21;29.30;98.90
24470;DHT22;12635;50.852;5.676;2023-06-14T08:18:48;27.50;99.10
24470;DHT22;12635;50.852;5.676;2023-06-14T08:21:16;26.80;99.90
24470;DHT22;12635;50.852;5.676;2023-06-14T08:23:43;26.60;99.90
24470;DHT22;12635;50.852;5.676;2023-06-14T08:26:10;27.20;99.90
24470;DHT22;12635;50.852;5.676;2023-06-14T08:28:37;28.30;99.90
24470;DHT22;12635;50.852;5.676;2023-06-14T08:31:04;28.20;99.50
24470;DHT22;12635;50.852;5.676;2023-06-14T08:33:32;28.20;99.80
24470;DHT22;12635;50.852;5.676;2023-06-14T08:36:00;28.50;99.90
24470;DHT22;12635;50.852;5.676;2023-06-14T08:38:26;27.40;99.90
24470;DHT22;12635;50.852;5.676;2023-06-14T08:40:55;27.10;99.90
24470;DHT22;12635;50.852;5.676;2023-06-14T08:43:23;27.60;99.90
24470;DHT22;12635;50.852;5.676;2023-06-14T08:45:51;27.80;99.90
24470;DHT22;12635;50.852;5.676;2023-06-14T08:48:20;29.60;99.90
24470;DHT22;12635;50.852;5.676;2023-06-14T08:50:50;30.60;98.40
24470;DHT22;12635;50.852;5.676;2023-06-14T08:53:17;30.10;99.10
24470;DHT22;12635;50.852;5.676;2023-06-14T08:55:45;28.50;99.50
24470;DHT22;12635;50.852;5.676;2023-06-14T08:58:13;28.00;99.90
24470;DHT22;12635;50.852;5.676;2023-06-14T09:00:40;29.30;99.20
24470;DHT22;12635;50.852;5.676;2023-06-14T09:03:08;27.90;99.90
24470;DHT22;12635;50.852;5.676;2023-06-14T09:05:39;27.60;98.70
24470;DHT22;12635;50.852;5.676;2023-06-14T09:08:07;27.30;99.70
24470;DHT22;12635;50.852;5.676;2023-06-14T09:10:36;27.90;99.90
24470;DHT22;12635;50.852;5.676;2023-06-14T09:13:03;28.10;99.60
24470;DHT22;12635;50.852;5.676;2023-06-14T09:15:30;28.80;98.30
24470;DHT22;12635;50.852;5.676;2023-06-14T09:17:57;27.90;99.30
24470;DHT22;12635;50.852;5.676;2023-06-14T09:20:24;28.30;97.50
24470;DHT22;12635;50.852;5.676;2023-06-14T09:22:51;28.50;96.90
24470;DHT22;12635;50.852;5.676;2023-06-14T09:25:20;28.00;97.90
24470;DHT22;12635;50.852;5.676;2023-06-14T09:27:47;28.30;98.00
24470;DHT22;12635;50.852;5.676;2023-06-14T09:30:15;29.80;95.90
24470;DHT22;12635;50.852;5.676;2023-06-14T09:32:42;30.80;98.60
24470;DHT22;12635;50.852;5.676;2023-06-14T09:35:09;30.40;97.30
24470;DHT22;12635;50.852;5.676;2023-06-14T09:37:36;29.20;96.50
24470;DHT22;12635;50.852;5.676;2023-06-14T09:40:04;30.00;98.80
24470;DHT22;12635;50.852;5.676;2023-06-14T09:42:34;30.60;96.60
24470;DHT22;12635;50.852;5.676;2023-06-14T09:45:01;30.90;97.30
24470;DHT22;12635;50.852;5.676;2023-06-14T09:47:29;30.00;97.90
24470;DHT22;12635;50.852;5.676;2023-06-14T09:49:55;30.00;97.60
24470;DHT22;12635;50.852;5.676;2023-06-14T09:52:22;31.70;97.10
24470;DHT22;12635;50.852;5.676;2023-06-14T09:54:49;31.20;95.50
24470;DHT22;12635;50.852;5.676;2023-06-14T09:57:16;30.20;97.20
24470;DHT22;12635;50.852;5.676;2023-06-14T09:59:45;30.60;95.50
24470;DHT22;12635;50.852;5.676;2023-06-14T10:02:16;31.40;95.70
24470;DHT22;12635;50.852;5.676;2023-06-14T10:04:49;30.80;95.60
24470;DHT22;12635;50.852;5.676;2023-06-14T10:07:19;30.30;95.80
24470;DHT22;12635;50.852;5.676;2023-06-14T10:09:46;29.60;97.90
24470;DHT22;12635;50.852;5.676;2023-06-14T10:12:16;29.00;95.90
24470;DHT22;12635;50.852;5.676;2023-06-14T10:14:48;28.20;96.80
24470;DHT22;12635;50.852;5.676;2023-06-14T10:17:19;27.20;96.80
24470;DHT22;12635;50.852;5.676;2023-06-14T10:19:48;27.30;97.50
24470;DHT22;12635;50.852;5.676;2023-06-14T10:22:19;28.20;98.50
24470;DHT22;12635;50.852;5.676;2023-06-14T10:24:50;29.30;97.30
24470;DHT22;12635;50.852;5.676;2023-06-14T10:27:17;30.30;96.00
24470;DHT22;12635;50.852;5.676;2023-06-14T10:30:03;30.00;95.00
24470;DHT22;12635;50.852;5.676;2023-06-14T10:32:30;29.50;96.30
24470;DHT22;12635;50.852;5.676;2023-06-14T10:34:59;29.50;96.20
24470;DHT22;12635;50.852;5.676;2023-06-14T10:37:26;28.90;95.80
24470;DHT22;12635;50.852;5.676;2023-06-14T10:39:53;29.50;95.10
24470;DHT22;12635;50.852;5.676;2023-06-14T10:42:20;30.40;94.90
24470;DHT22;12635;50.852;5.676;2023-06-14T10:44:51;30.60;94.20
24470;DHT22;12635;50.852;5.676;2023-06-14T10:47:29;28.70;94.20
24470;DHT22;12635;50.852;5.676;2023-06-14T10:49:57;27.30;96.10
24470;DHT22;12635;50.852;5.676;2023-06-14T10:52:25;28.60;97.50
24470;DHT22;12635;50.852;5.676;2023-06-14T10:55:00;28.10;96.70
24470;DHT22;12635;50.852;5.676;2023-06-14T10:57:27;28.20;96.90
24470;DHT22;12635;50.852;5.676;2023-06-14T10:59:54;27.70;96.40
24470;DHT22;12635;50.852;5.676;2023-06-14T11:05:05;28.80;96.80
24470;DHT22;12635;50.852;5.676;2023-06-14T11:07:37;27.60;95.50
24470;DHT22;12635;50.852;5.676;2023-06-14T11:10:10;28.30;98.30
24470;DHT22;12635;50.852;5.676;2023-06-14T11:12:41;29.20;96.00
24470;DHT22;12635;50.852;5.676;2023-06-14T11:15:12;29.60;94.90
24470;DHT22;12635;50.852;5.676;2023-06-14T11:17:39;30.30;96.60
24470;DHT22;12635;50.852;5.676;2023-06-14T11:20:10;29.70;96.40
24470;DHT22;12635;50.852;5.676;2023-06-14T11:22:51;28.80;94.80
24470;DHT22;12635;50.852;5.676;2023-06-14T11:25:18;29.10;93.20
24470;DHT22;12635;50.852;5.676;2023-06-14T11:27:45;29.10;94.60
24470;DHT22;12635;50.852;5.676;2023-06-14T11:30:12;28.70;95.90
24470;DHT22;12635;50.852;5.676;2023-06-14T11:32:39;28.40;93.20
24470;DHT22;12635;50.852;5.676;2023-06-14T11:35:06;28.80;95.00
24470;DHT22;12635;50.852;5.676;2023-06-14T11:37:34;29.10;92.10
24470;DHT22;12635;50.852;5.676;2023-06-14T11:40:04;29.70;95.00
24470;DHT22;12635;50.852;5.676;2023-06-14T11:42:33;27.80;93.20
24470;DHT22;12635;50.852;5.676;2023-06-14T11:45:01;28.50;94.20
24470;DHT22;12635;50.852;5.676;2023-06-14T11:47:31;28.20;93.20
24470;DHT22;12635;50.852;5.676;2023-06-14T11:49:58;28.70;94.40
24470;DHT22;12635;50.852;5.676;2023-06-14T11:52:25;29.10;92.90
24470;DHT22;12635;50.852;5.676;2023-06-14T11:54:52;29.90;93.90
24470;DHT22;12635;50.852;5.676;2023-06-14T11:57:21;29.40;91.90
24470;DHT22;12635;50.852;5.676;2023-06-14T11:59:48;28.70;92.10
24470;DHT22;12635;50.852;5.676;2023-06-14T12:02:15;28.30;93.20
24470;DHT22;12635;50.852;5.676;2023-06-14T12:04:42;28.30;93.70
24470;DHT22;12635;50.852;5.676;2023-06-14T12:07:09;29.40;96.50
24470;DHT22;12635;50.852;5.676;2023-06-14T12:09:40;29.90;95.50
24470;DHT22;12635;50.852;5.676;2023-06-14T12:12:09;29.80;94.10
24470;DHT22;12635;50.852;5.676;2023-06-14T12:14:37;29.70;95.50
24470;DHT22;12635;50.852;5.676;2023-06-14T12:17:07;29.30;94.80
24470;DHT22;12635;50.852;5.676;2023-06-14T12:19:41;27.60;93.10
24470;DHT22;12635;50.852;5.676;2023-06-14T12:22:09;27.60;94.80
24470;DHT22;12635;50.852;5.676;2023-06-14T12:24:36;27.50;94.50
24470;DHT22;12635;50.852;5.676;2023-06-14T12:27:03;27.30;94.60
24470;DHT22;12635;50.852;5.676;2023-06-14T12:29:30;26.60;95.10
24470;DHT22;12635;50.852;5.676;2023-06-14T12:31:58;27.80;95.20
24470;DHT22;12635;50.852;5.676;2023-06-14T12:34:25;28.80;95.90
24470;DHT22;12635;50.852;5.676;2023-06-14T12:36:53;28.40;93.80
24470;DHT22;12635;50.852;5.676;2023-06-14T12:39:20;28.80;95.30
24470;DHT22;12635;50.852;5.676;2023-06-14T12:41:47;29.70;95.60
24470;DHT22;12635;50.852;5.676;2023-06-14T12:44:14;29.80;93.50
24470;DHT22;12635;50.852;5.676;2023-06-14T12:46:42;29.50;94.30
24470;DHT22;12635;50.852;5.676;2023-06-14T12:49:10;30.10;94.90
24470;DHT22;12635;50.852;5.676;2023-06-14T12:51:37;29.70;95.90
24470;DHT22;12635;50.852;5.676;2023-06-14T12:54:05;29.60;94.00
24470;DHT22;12635;50.852;5.676;2023-06-14T12:56:32;28.30;94.10
24470;DHT22;12635;50.852;5.676;2023-06-14T12:58:58;28.20;95.90
24470;DHT22;12635;50.852;5.676;2023-06-14T13:01:25;28.30;95.90
24470;DHT22;12635;50.852;5.676;2023-06-14T13:03:52;27.30;96.00
24470;DHT22;12635;50.852;5.676;2023-06-14T13:06:21;26.80;94.20
24470;DHT22;12635;50.852;5.676;2023-06-14T13:08:48;27.80;95.80
24470;DHT22;12635;50.852;5.676;2023-06-14T13:11:15;28.80;98.00
24470;DHT22;12635;50.852;5.676;2023-06-14T13:13:42;29.80;96.10
24470;DHT22;12635;50.852;5.676;2023-06-14T13:16:09;29.30;94.50
24470;DHT22;12635;50.852;5.676;2023-06-14T13:18:38;29.60;94.80
24470;DHT22;12635;50.852;5.676;2023-06-14T13:21:05;29.40;95.00
24470;DHT22;12635;50.852;5.676;2023-06-14T13:23:33;27.90;94.20
24470;DHT22;12635;50.852;5.676;2023-06-14T13:26:00;27.90;97.50
24470;DHT22;12635;50.852;5.676;2023-06-14T13:28:27;28.70;96.50
24470;DHT22;12635;50.852;5.676;2023-06-14T13:30:54;29.30;96.50
24470;DHT22;12635;50.852;5.676;2023-06-14T13:33:21;28.20;94.30
24470;DHT22;12635;50.852;5.676;2023-06-14T13:35:49;27.80;97.60
24470;DHT22;12635;50.852;5.676;2023-06-14T13:38:18;27.70;97.90
24470;DHT22;12635;50.852;5.676;2023-06-14T13:40:46;28.60;95.90
24470;DHT22;12635;50.852;5.676;2023-06-14T13:43:13;28.70;96.00
24470;DHT22;12635;50.852;5.676;2023-06-14T13:45:40;29.90;96.10
24470;DHT22;12635;50.852;5.676;2023-06-14T13:48:07;29.60;94.50
24470;DHT22;12635;50.852;5.676;2023-06-14T13:50:33;27.70;94.30
24470;DHT22;12635;50.852;5.676;2023-06-14T13:53:00;27.00;95.30
24470;DHT22;12635;50.852;5.676;2023-06-14T13:55:27;27.80;96.90
24470;DHT22;12635;50.852;5.676;2023-06-14T13:57:56;29.10;96.80
24470;DHT22;12635;50.852;5.676;2023-06-14T14:00:23;29.80;94.70
24470;DHT22;12635;50.852;5.676;2023-06-14T14:02:50;30.00;94.30
24470;DHT22;12635;50.852;5.676;2023-06-14T14:05:17;30.50;93.60
24470;DHT22;12635;50.852;5.676;2023-06-14T14:07:45;30.90;94.10
24470;DHT22;12635;50.852;5.676;2023-06-14T14:10:12;30.10;93.80
24470;DHT22;12635;50.852;5.676;2023-06-14T14:12:39;29.80;94.30
24470;DHT22;12635;50.852;5.676;2023-06-14T14:15:08;30.60;93.30
24470;DHT22;12635;50.852;5.676;2023-06-14T14:17:38;31.00;93.60
24470;DHT22;12635;50.852;5.676;2023-06-14T14:20:05;31.90;93.50
24470;DHT22;12635;50.852;5.676;2023-06-14T14:22:32;31.90;93.60
24470;DHT22;12635;50.852;5.676;2023-06-14T14:24:59;31.40;93.10
24470;DHT22;12635;50.852;5.676;2023-06-14T14:27:26;30.70;94.70
24470;DHT22;12635;50.852;5.676;2023-06-14T14:29:53;30.50;96.20
24470;DHT22;12635;50.852;5.676;2023-06-14T14:32:21;30.40;92.80
24470;DHT22;12635;50.852;5.676;2023-06-14T14:34:48;29.50;93.40
24470;DHT22;12635;50.852;5.676;2023-06-14T14:37:15;27.80;91.30
24470;DHT22;12635;50.852;5.676;2023-06-14T14:39:43;28.00;94.00
24470;DHT22;12635;50.852;5.676;2023-06-14T14:42:10;27.70;94.00
24470;DHT22;12635;50.852;5.676;2023-06-14T14:44:38;27.90;93.80
24470;DHT22;12635;50.852;5.676;2023-06-14T14:47:05;28.70;93.70
24470;DHT22;12635;50.852;5.676;2023-06-14T14:49:33;28.70;94.80
24470;DHT22;12635;50.852;5.676;2023-06-14T14:52:00;29.50;93.10
24470;DHT22;12635;50.852;5.676;2023-06-14T14:54:27;30.40;95.20
24470;DHT22;12635;50.852;5.676;2023-06-14T14:56:55;29.70;95.60
24470;DHT22;12635;50.852;5.676;2023-06-14T14:59:21;29.70;94.20
24470;DHT22;12635;50.852;5.676;2023-06-14T15:01:48;29.50;92.60
24470;DHT22;12635;50.852;5.676;2023-06-14T15:04:16;30.30;90.80
24470;DHT22;12635;50.852;5.676;2023-06-14T15:06:44;30.00;94.00
24470;DHT22;12635;50.852;5.676;2023-06-14T15:09:11;30.50;94.00
24470;DHT22;12635;50.852;5.676;2023-06-14T15:11:38;30.20;92.40
24470;DHT22;12635;50.852;5.676;2023-06-14T15:14:05;31.20;90.60
24470;DHT22;12635;50.852;5.676;2023-06-14T15:16:31;30.90;90.30
24470;DHT22;12635;50.852;5.676;2023-06-14T15:18:58;29.30;91.90
24470;DHT22;12635;50.852;5.676;2023-06-14T15:21:25;29.10;92.50
24470;DHT22;12635;50.852;5.676;2023-06-14T15:23:53;29.90;93.30
24470;DHT22;12635;50.852;5.676;2023-06-14T15:26:20;30.90;92.80
24470;DHT22;12635;50.852;5.676;2023-06-14T15:28:49;30.90;91.90
24470;DHT22;12635;50.852;5.676;2023-06-14T15:31:16;29.80;91.80
24470;DHT22;12635;50.852;5.676;2023-06-14T15:33:42;29.90;92.30
24470;DHT22;12635;50.852;5.676;2023-06-14T15:36:09;29.60;95.10